This is the latest recevied weather packets stored in our database for station/object SY3EBK-13. If no packets are shown the sender has not sent any weather packets the latest 10 day(s).
| Time | Temp. | Humidity | Pressure | Rain* | Wind** | Luminosity | Snow |
|---|---|---|---|---|---|---|---|
| 1787815253 | 27.78° C | 42% | 917.8 hPa | - | 0 m/s | - | - |
| 1787814353 | 27.78° C | 43% | 917.6 hPa | - | 0 m/s | - | - |
| 1787812553 | 26.67° C | 46% | 917.7 hPa | - | 0 m/s | - | - |
| 1787811653 | 26.11° C | 47% | 917.4 hPa | - | 0 m/s | - | - |
| 1787810753 | 25° C | 51% | 917.4 hPa | - | 0 m/s | - | - |
| 1787808953 | 23.89° C | 55% | 917.3 hPa | - | 0 m/s | - | - |
| 1787808053 | 23.33° C | 56% | 917.2 hPa | - | 0 m/s | - | - |
| 1787807153 | 22.78° C | 57% | 917.1 hPa | - | 0 m/s | - | - |
| 1787806253 | 23.33° C | 56% | 916.9 hPa | - | 0 m/s | - | - |
| 1787805353 | 22.78° C | 58% | 916.9 hPa | - | 0 m/s | - | - |
| 1787804453 | 22.78° C | 57% | 916.8 hPa | - | 0 m/s | - | - |
| 1787803553 | 22.78° C | 58% | 916.8 hPa | - | 0 m/s | - | - |
| 1787802653 | 22.78° C | 59% | 916.7 hPa | - | 0 m/s | - | - |
| 1787801753 | 22.78° C | 59% | 916.5 hPa | - | 0 m/s | - | - |
| 1787800853 | 23.33° C | 58% | 916.4 hPa | - | 0 m/s | - | - |
| 1787799953 | 23.33° C | 59% | 916.4 hPa | - | 0 m/s | - | - |
| 1787799053 | 23.33° C | 58% | 916.3 hPa | - | 0 m/s | - | - |
| 1787798153 | 23.33° C | 58% | 916.4 hPa | - | 0 m/s | - | - |
| 1787797253 | 23.33° C | 56% | 916.2 hPa | - | 0 m/s | - | - |
| 1787796353 | 23.33° C | 57% | 916.3 hPa | - | 0 m/s | - | - |
| 1787795453 | 23.89° C | 57% | 916.2 hPa | - | 0 m/s | - | - |
| 1787794553 | 23.89° C | 59% | 916.3 hPa | - | 0 m/s | - | - |
| 1787793653 | 23.89° C | 58% | 916.3 hPa | - | 0 m/s | - | - |
| 1787792753 | 23.89° C | 58% | 916.3 hPa | - | 0 m/s | - | - |
| 1787791853 | 23.89° C | 57% | 916.3 hPa | - | 0 m/s | - | - |
* Rain since midnight (hover to see other rain measurements)
** Current wind speed in m/s (hover to see current wind gust speed)